createdAt,value
2022-09-03T00:00:42.067Z,43.85
2022-09-03T00:03:21.827Z,46.77
2022-09-03T00:05:57.333Z,45.59
2022-09-03T00:08:33.871Z,41.33
2022-09-03T00:11:12.020Z,43.01
2022-09-03T00:13:45.095Z,42.43
2022-09-03T00:16:19.610Z,42.07
2022-09-03T00:18:52.205Z,41.77
2022-09-03T00:21:39.315Z,41.81
2022-09-03T00:24:14.408Z,41.30
2022-09-03T00:26:47.941Z,42.33
2022-09-03T00:29:20.119Z,39.23
2022-09-03T00:31:52.700Z,44.89
2022-09-03T00:34:26.980Z,42.81
2022-09-03T00:36:55.895Z,41.25
2022-09-03T00:39:27.651Z,41.98
2022-09-03T00:42:08.174Z,41.41
2022-09-03T00:45:03.967Z,42.61
2022-09-03T00:47:42.387Z,42.60
2022-09-03T00:50:20.947Z,41.79
2022-09-03T00:52:58.195Z,43.45
2022-09-03T00:55:40.267Z,42.86
2022-09-03T00:58:43.873Z,42.14
2022-09-03T01:01:19.457Z,41.80
2022-09-03T01:03:58.712Z,40.76
2022-09-03T01:06:36.311Z,41.99
2022-09-03T01:09:13.292Z,41.58
2022-09-03T01:11:57.076Z,39.47
2022-09-03T01:14:35.921Z,42.77
2022-09-03T01:17:14.340Z,42.57
2022-09-03T01:20:07.447Z,43.24
2022-09-03T01:22:58.535Z,42.61
2022-09-03T01:25:50.749Z,42.13
2022-09-03T01:28:34.984Z,42.19
2022-09-03T01:31:16.550Z,42.01
2022-09-03T01:33:51.485Z,42.09
2022-09-03T01:36:28.251Z,42.24
2022-09-03T01:39:01.270Z,42.11
2022-09-03T01:42:01.614Z,42.34
2022-09-03T01:44:44.126Z,42.55
2022-09-03T01:47:21.819Z,42.79
2022-09-03T01:49:57.980Z,42.46
2022-09-03T01:52:40.571Z,42.61
2022-09-03T01:55:23.538Z,42.72
2022-09-03T01:57:52.364Z,42.91
2022-09-03T02:00:23.101Z,42.84
2022-09-03T02:02:53.734Z,43.12
2022-09-03T02:05:24.905Z,43.04
2022-09-03T02:07:59.247Z,42.98
2022-09-03T02:10:32.347Z,43.00
2022-09-03T02:13:06.179Z,43.25
2022-09-03T02:15:38.938Z,43.28
2022-09-03T02:18:13.169Z,43.43
2022-09-03T02:20:42.615Z,43.44
2022-09-03T02:23:11.352Z,43.48
2022-09-03T02:25:42.833Z,43.72
2022-09-03T02:28:17.168Z,43.55
2022-09-03T02:30:48.383Z,43.60
2022-09-03T02:33:17.486Z,43.63
2022-09-03T02:35:47.235Z,43.67
2022-09-03T02:38:18.165Z,43.86
2022-09-03T02:40:47.120Z,43.98
2022-09-03T02:43:20.253Z,44.21
2022-09-03T02:45:58.221Z,44.46
2022-09-03T02:48:26.872Z,44.31
2022-09-03T02:50:55.737Z,44.40
2022-09-03T02:53:24.596Z,44.49
2022-09-03T02:55:53.256Z,44.36
2022-09-03T02:58:21.832Z,44.43
2022-09-03T03:00:50.472Z,44.57
2022-09-03T03:03:20.892Z,44.59
2022-09-03T03:05:51.796Z,44.59
2022-09-03T03:08:23.918Z,44.71
2022-09-03T03:10:56.830Z,44.64
2022-09-03T03:13:25.490Z,44.75
2022-09-03T03:15:57.111Z,44.83
2022-09-03T03:18:27.656Z,44.74
2022-09-03T03:20:56.629Z,44.87
2022-09-03T03:23:25.303Z,45.05
2022-09-03T03:25:53.864Z,45.00
2022-09-03T03:28:22.462Z,44.96
2022-09-03T03:30:53.015Z,44.87
2022-09-03T03:33:22.343Z,44.90
2022-09-03T03:35:53.587Z,44.73
2022-09-03T03:38:22.180Z,45.02
2022-09-03T03:40:50.867Z,45.26
2022-09-03T03:43:19.415Z,45.22
2022-09-03T03:45:58.915Z,45.16
2022-09-03T03:48:27.837Z,45.51
2022-09-03T03:51:01.345Z,45.29
2022-09-03T03:53:29.891Z,45.03
2022-09-03T03:55:59.674Z,45.48
2022-09-03T03:58:29.094Z,45.45
2022-09-03T04:01:04.942Z,45.20
2022-09-03T04:03:33.537Z,45.71
2022-09-03T04:06:04.747Z,45.58
2022-09-03T04:08:36.428Z,45.66
2022-09-03T04:11:07.124Z,45.61
2022-09-03T04:13:37.442Z,45.66
2022-09-03T04:16:07.820Z,45.99
2022-09-03T04:18:37.502Z,45.56
2022-09-03T04:21:09.581Z,45.88
2022-09-03T04:23:41.197Z,45.84
2022-09-03T04:26:12.415Z,45.81
2022-09-03T04:28:42.011Z,46.03
2022-09-03T04:31:13.597Z,45.81
2022-09-03T04:33:42.855Z,45.86
2022-09-03T04:36:15.220Z,45.82
2022-09-03T04:38:45.233Z,45.89
2022-09-03T04:41:15.928Z,46.19
2022-09-03T04:43:45.004Z,46.08
2022-09-03T04:46:18.502Z,46.08
2022-09-03T04:48:51.318Z,46.26
2022-09-03T04:51:24.439Z,46.54
2022-09-03T04:53:58.009Z,46.22
2022-09-03T04:56:28.135Z,46.48
2022-09-03T04:58:58.301Z,46.48
2022-09-03T05:01:28.802Z,46.59
2022-09-03T05:03:58.249Z,46.43
2022-09-03T05:06:29.444Z,46.95
2022-09-03T05:08:58.974Z,46.46
2022-09-03T05:11:29.278Z,46.89
2022-09-03T05:14:00.082Z,46.74
2022-09-03T05:16:30.430Z,46.85
2022-09-03T05:19:01.271Z,46.94
2022-09-03T05:21:31.577Z,46.98
2022-09-03T05:24:02.293Z,46.87
2022-09-03T05:26:32.316Z,46.58
2022-09-03T05:29:02.602Z,45.04
2022-09-03T05:31:32.569Z,46.71
2022-09-03T05:34:02.781Z,45.28
2022-09-03T05:36:34.713Z,43.38
2022-09-03T05:39:03.228Z,42.32
2022-09-03T05:41:33.597Z,41.38
2022-09-03T05:44:02.226Z,40.82
2022-09-03T05:46:33.394Z,40.36
2022-09-03T05:49:03.506Z,39.88
2022-09-03T05:51:34.421Z,39.59
2022-09-03T05:54:03.938Z,39.49
2022-09-03T05:56:35.778Z,39.12
2022-09-03T05:59:09.305Z,38.56
2022-09-03T06:01:39.764Z,38.43
2022-09-03T06:04:10.320Z,38.17
2022-09-03T06:06:42.101Z,37.55
2022-09-03T06:09:13.651Z,37.85
2022-09-03T06:11:42.821Z,37.95
2022-09-03T06:14:14.460Z,37.91
2022-09-03T06:16:45.371Z,37.79
2022-09-03T06:19:14.417Z,37.75
2022-09-03T06:21:46.101Z,37.09
2022-09-03T06:24:17.603Z,37.00
2022-09-03T06:26:46.679Z,37.39
2022-09-03T06:29:15.978Z,39.15
2022-09-03T06:31:44.843Z,38.92
2022-09-03T06:34:13.334Z,41.12
2022-09-03T06:36:43.032Z,40.28
2022-09-03T06:39:11.305Z,38.30
2022-09-03T06:41:40.183Z,36.98
2022-09-03T06:44:12.341Z,36.89
2022-09-03T06:46:43.054Z,40.03
2022-09-03T06:49:12.657Z,40.88
2022-09-03T06:51:44.384Z,39.65
2022-09-03T06:54:13.816Z,39.32
2022-09-03T06:56:43.932Z,40.94
2022-09-03T06:59:14.469Z,40.46
2022-09-03T07:01:46.081Z,41.40
2022-09-03T07:04:19.295Z,41.35
2022-09-03T07:06:50.112Z,42.15
2022-09-03T07:09:19.153Z,41.37
2022-09-03T07:11:48.721Z,39.95
2022-09-03T07:14:19.385Z,38.19
2022-09-03T07:16:49.310Z,37.88
2022-09-03T07:19:18.322Z,39.45
2022-09-03T07:21:50.041Z,41.44
2022-09-03T07:24:22.370Z,40.40
2022-09-03T07:26:51.110Z,39.99
2022-09-03T07:29:21.765Z,39.23
2022-09-03T07:31:53.042Z,42.65
2022-09-03T07:34:25.342Z,40.12
2022-09-03T07:36:54.168Z,39.43
2022-09-03T07:39:24.125Z,40.09
2022-09-03T07:41:52.544Z,38.08
2022-09-03T07:44:21.403Z,37.44
2022-09-03T07:46:51.356Z,38.54
2022-09-03T07:49:21.131Z,37.55
2022-09-03T07:51:50.916Z,36.77
2022-09-03T07:54:20.378Z,37.81
2022-09-03T07:56:50.083Z,38.64
2022-09-03T07:59:19.287Z,39.83
2022-09-03T08:01:47.552Z,39.52
2022-09-03T08:04:15.878Z,37.44
2022-09-03T08:06:44.240Z,38.19
2022-09-03T08:09:14.594Z,36.90
2022-09-03T08:11:44.831Z,36.06
2022-09-03T08:14:16.549Z,36.68
2022-09-03T08:16:47.394Z,36.33
2022-09-03T08:19:17.179Z,35.20
2022-09-03T08:21:45.964Z,36.14
2022-09-03T08:24:16.928Z,37.69
2022-09-03T08:26:50.725Z,36.00
2022-09-03T08:29:23.919Z,38.44
2022-09-03T08:31:52.574Z,38.09
2022-09-03T08:34:21.461Z,36.23
2022-09-03T08:36:50.402Z,38.60
2022-09-03T08:39:18.815Z,36.58
2022-09-03T08:42:19.906Z,37.17
2022-09-03T08:44:54.210Z,36.38
2022-09-03T08:47:27.196Z,37.58
2022-09-03T08:49:59.606Z,37.95
2022-09-03T08:52:33.712Z,38.89
2022-09-03T08:55:21.559Z,37.90
2022-09-03T08:57:52.530Z,36.86
2022-09-03T09:00:22.281Z,36.53
2022-09-03T09:03:08.905Z,37.30
2022-09-03T09:05:51.793Z,36.94
2022-09-03T09:08:33.705Z,37.17
2022-09-03T09:11:10.031Z,38.30
2022-09-03T09:13:47.863Z,36.83
2022-09-03T09:16:26.479Z,37.01
2022-09-03T09:19:12.943Z,37.04
2022-09-03T09:21:47.074Z,36.65
2022-09-03T09:24:23.447Z,36.16
2022-09-03T09:26:57.279Z,36.12
2022-09-03T09:29:29.782Z,38.18
2022-09-03T09:31:59.671Z,38.65
2022-09-03T09:34:28.274Z,40.55
2022-09-03T09:36:57.805Z,39.47
2022-09-03T09:39:26.188Z,39.12
2022-09-03T09:42:05.517Z,40.31
2022-09-03T09:44:34.115Z,39.89
2022-09-03T09:47:11.891Z,42.60
2022-09-03T09:49:53.915Z,39.79
2022-09-03T09:52:25.981Z,37.46
2022-09-03T09:55:07.479Z,38.71
2022-09-03T09:57:37.279Z,38.23
2022-09-03T10:00:10.800Z,39.56
2022-09-03T10:02:42.416Z,37.47
2022-09-03T10:05:21.229Z,37.74
2022-09-03T10:07:58.330Z,37.42
2022-09-03T10:10:29.131Z,38.53
2022-09-03T10:13:05.961Z,38.06
2022-09-03T10:15:42.133Z,38.40
2022-09-03T10:18:26.449Z,39.42
2022-09-03T10:21:05.138Z,41.32
2022-09-03T10:23:43.370Z,38.75
2022-09-03T10:26:15.235Z,39.71
2022-09-03T10:28:47.061Z,41.28
2022-09-03T10:31:33.308Z,38.61
2022-09-03T10:34:11.352Z,38.71
2022-09-03T10:36:51.035Z,38.33
2022-09-03T10:39:27.128Z,38.78
2022-09-03T10:42:11.093Z,41.07
2022-09-03T10:45:01.800Z,40.11
2022-09-03T10:48:23.163Z,40.54
2022-09-03T10:50:58.117Z,39.58
2022-09-03T10:53:50.052Z,39.35
2022-09-03T10:56:23.785Z,40.28
2022-09-03T10:59:17.405Z,40.65
2022-09-03T11:01:59.914Z,42.48
2022-09-03T11:04:38.682Z,42.36
2022-09-03T11:07:13.679Z,42.90
2022-09-03T11:09:48.313Z,42.42
2022-09-03T11:12:25.428Z,43.40
2022-09-03T11:15:01.665Z,43.05
2022-09-03T11:17:39.291Z,42.24
2022-09-03T11:20:18.135Z,42.21
2022-09-03T11:22:50.567Z,43.81
2022-09-03T11:25:23.849Z,45.11
2022-09-03T11:28:09.073Z,45.69
2022-09-03T11:30:49.838Z,46.17
2022-09-03T11:33:23.158Z,44.71
2022-09-03T11:36:00.834Z,45.12
2022-09-03T11:38:32.343Z,43.37
2022-09-03T11:41:05.785Z,45.27
2022-09-03T11:43:35.822Z,45.35
2022-09-03T11:46:12.411Z,46.24
2022-09-03T11:48:44.974Z,45.12
2022-09-03T11:51:33.409Z,44.99
2022-09-03T11:54:06.713Z,44.50
2022-09-03T11:56:36.763Z,45.72
2022-09-03T11:59:18.939Z,44.60
2022-09-03T12:01:53.687Z,45.94
2022-09-03T12:04:28.290Z,43.49
2022-09-03T12:07:33.799Z,44.22
2022-09-03T12:10:28.738Z,42.18
2022-09-03T12:13:15.066Z,42.99
2022-09-03T12:16:08.452Z,43.34
2022-09-03T12:18:38.928Z,43.61
2022-09-03T12:21:10.108Z,42.22
2022-09-03T12:23:45.045Z,43.20
2022-09-03T12:26:17.308Z,43.98
2022-09-03T12:28:49.705Z,42.79
2022-09-03T12:31:24.697Z,45.19
2022-09-03T12:33:59.177Z,44.22
2022-09-03T12:36:37.098Z,43.82
2022-09-03T12:39:12.451Z,44.97
2022-09-03T12:41:59.154Z,44.10
2022-09-03T12:44:30.084Z,43.88
2022-09-03T12:49:59.851Z,46.00
2022-09-03T12:52:32.119Z,45.20
2022-09-03T12:55:06.334Z,45.11
2022-09-03T12:57:40.609Z,44.86
2022-09-03T13:00:12.256Z,44.88
2022-09-03T13:02:48.814Z,46.64
2022-09-03T13:05:22.886Z,46.85
2022-09-03T13:07:54.651Z,45.18
2022-09-03T13:10:29.871Z,48.24
2022-09-03T13:13:04.489Z,47.06
2022-09-03T13:15:32.964Z,46.44
2022-09-03T13:18:21.114Z,45.42
2022-09-03T13:21:15.502Z,45.05
2022-09-03T13:24:20.592Z,44.50
2022-09-03T13:27:00.760Z,46.36
2022-09-03T13:29:47.205Z,45.37
2022-09-03T13:32:30.265Z,47.42
2022-09-03T13:35:05.404Z,47.25
2022-09-03T13:37:39.805Z,48.66
2022-09-03T13:40:19.445Z,46.62
2022-09-03T13:42:55.004Z,46.31
2022-09-03T13:45:33.761Z,45.00
2022-09-03T13:48:28.772Z,45.78
2022-09-03T13:51:08.352Z,45.94
2022-09-03T13:53:49.904Z,45.07
2022-09-03T13:56:27.387Z,44.89
2022-09-03T13:59:05.173Z,44.81
2022-09-03T14:01:59.526Z,45.63
2022-09-03T14:04:41.892Z,46.39
2022-09-03T14:07:17.629Z,47.28
2022-09-03T14:10:00.935Z,48.15
2022-09-03T14:12:44.314Z,47.67
2022-09-03T14:15:21.748Z,46.34
2022-09-03T14:18:03.583Z,44.26
2022-09-03T14:20:40.335Z,45.38
2022-09-03T14:23:27.002Z,44.25
2022-09-03T14:25:56.197Z,43.47
2022-09-03T14:28:34.736Z,44.29
2022-09-03T14:31:14.192Z,44.14
2022-09-03T14:33:56.578Z,45.49
2022-09-03T14:36:31.419Z,46.88
2022-09-03T14:39:34.825Z,44.43
2022-09-03T14:42:44.829Z,44.93
2022-09-03T14:45:35.108Z,43.65
2022-09-03T14:48:50.229Z,45.58
2022-09-03T14:51:32.817Z,45.75
2022-09-03T14:54:38.053Z,44.66
2022-09-03T14:57:26.630Z,44.41
2022-09-03T15:00:17.392Z,45.42
2022-09-03T15:03:37.098Z,46.94
2022-09-03T15:06:41.811Z,45.11
2022-09-03T15:09:29.551Z,46.46
2022-09-03T15:12:02.428Z,45.62
2022-09-03T15:14:43.050Z,46.62
2022-09-03T15:17:35.389Z,47.95
2022-09-03T15:20:27.616Z,45.40
2022-09-03T15:23:41.447Z,46.25
2022-09-03T15:26:43.284Z,45.57
2022-09-03T15:29:31.107Z,43.91
2022-09-03T15:32:09.149Z,44.51
2022-09-03T15:35:07.601Z,44.57
2022-09-03T15:37:45.558Z,45.03
2022-09-03T15:40:30.135Z,45.39
2022-09-03T15:43:10.639Z,45.72
2022-09-03T15:45:52.109Z,45.16
2022-09-03T15:48:30.477Z,44.64
2022-09-03T15:51:13.006Z,43.49
2022-09-03T15:53:51.043Z,44.39
2022-09-03T15:56:29.378Z,43.67
2022-09-03T15:59:08.605Z,44.62
2022-09-03T16:01:45.491Z,44.78
2022-09-03T16:04:34.920Z,44.11
2022-09-03T16:07:12.245Z,44.15
2022-09-03T16:10:22.811Z,45.12
2022-09-03T16:12:58.947Z,45.16
2022-09-03T16:15:30.777Z,45.69
2022-09-03T16:18:07.986Z,43.00
2022-09-03T16:20:43.885Z,44.59
2022-09-03T16:23:21.424Z,43.66
2022-09-03T16:25:54.661Z,44.65
2022-09-03T16:28:31.201Z,43.48
2022-09-03T16:31:14.253Z,44.54
2022-09-03T16:33:51.613Z,43.18
2022-09-03T16:36:38.558Z,43.53
2022-09-03T16:39:23.572Z,44.70
2022-09-03T16:42:03.325Z,44.79
2022-09-03T16:44:50.694Z,45.36
2022-09-03T16:47:33.344Z,44.04
2022-09-03T16:50:19.550Z,44.65
2022-09-03T16:53:06.909Z,44.85
2022-09-03T16:56:11.621Z,44.45
2022-09-03T16:58:52.913Z,44.78
2022-09-03T17:01:45.848Z,44.21
2022-09-03T17:05:02.151Z,44.12
2022-09-03T17:08:06.198Z,45.59
2022-09-03T17:10:45.700Z,45.54
2022-09-03T17:13:43.119Z,47.78
2022-09-03T17:16:24.696Z,49.83
2022-09-03T17:19:03.986Z,49.99
2022-09-03T17:21:49.048Z,52.78
2022-09-03T17:24:45.174Z,52.84
2022-09-03T17:27:33.410Z,55.57
2022-09-03T17:30:10.856Z,55.48
2022-09-03T17:33:32.924Z,57.19
2022-09-03T17:36:13.179Z,55.70
2022-09-03T17:39:23.151Z,56.54
2022-09-03T17:41:54.848Z,59.14
2022-09-03T17:44:47.700Z,57.71
2022-09-03T17:48:01.040Z,56.90
2022-09-03T17:50:33.930Z,58.99
2022-09-03T17:53:11.325Z,56.76
2022-09-03T17:55:44.559Z,58.48
2022-09-03T17:58:18.119Z,61.55
2022-09-03T18:00:58.208Z,61.28
2022-09-03T18:03:33.229Z,59.94
2022-09-03T18:06:07.384Z,60.83
2022-09-03T18:08:50.362Z,63.91
2022-09-03T18:11:28.781Z,61.71
2022-09-03T18:14:10.385Z,65.21
2022-09-03T18:16:46.469Z,68.72
2022-09-03T18:19:31.403Z,76.23
2022-09-03T18:22:22.683Z,77.01
2022-09-03T18:25:17.142Z,84.01
2022-09-03T18:28:09.326Z,81.55
2022-09-03T18:30:55.190Z,84.80
2022-09-03T18:33:44.388Z,81.17
2022-09-03T18:36:31.139Z,83.57
2022-09-03T18:39:30.934Z,75.09
2022-09-03T18:42:32.348Z,80.97
2022-09-03T18:45:47.884Z,82.32
2022-09-03T18:48:48.057Z,77.61
2022-09-03T18:51:47.908Z,73.86
2022-09-03T18:55:06.843Z,73.29
2022-09-03T18:58:18.744Z,81.04
2022-09-03T19:01:17.358Z,84.33
2022-09-03T19:04:23.389Z,82.38
2022-09-03T19:07:20.988Z,91.64
2022-09-03T19:10:14.896Z,90.86
2022-09-03T19:13:24.895Z,90.53
2022-09-03T19:16:22.020Z,95.00
2022-09-03T19:19:33.949Z,89.05
2022-09-03T19:22:27.789Z,89.35
2022-09-03T19:25:20.753Z,87.35
2022-09-03T19:28:22.897Z,87.42
2022-09-03T19:31:19.973Z,86.71
2022-09-03T19:34:14.901Z,88.72
2022-09-03T19:37:09.003Z,88.40
2022-09-03T19:40:17.600Z,85.53
2022-09-03T19:43:17.282Z,91.83
2022-09-03T19:46:18.264Z,93.75
2022-09-03T19:49:17.876Z,90.61
2022-09-03T19:52:16.997Z,87.93
2022-09-03T19:55:04.035Z,84.52
2022-09-03T19:57:50.620Z,92.23
2022-09-03T20:00:38.692Z,94.00
2022-09-03T20:03:25.392Z,92.91
2022-09-03T20:06:11.648Z,91.31
2022-09-03T20:08:57.761Z,88.31
2022-09-03T20:11:29.855Z,93.34
2022-09-03T20:14:16.556Z,89.46
2022-09-03T20:17:06.819Z,88.98
2022-09-03T20:19:50.524Z,91.14
2022-09-03T20:22:29.174Z,89.05
2022-09-03T20:25:20.926Z,91.43
2022-09-03T20:28:04.321Z,96.40
2022-09-03T20:30:42.156Z,98.70
2022-09-03T20:33:54.624Z,97.72
2022-09-03T20:36:33.572Z,94.75
2022-09-03T20:39:30.773Z,96.78
2022-09-03T20:42:26.006Z,96.42
2022-09-03T20:45:06.601Z,94.84
2022-09-03T20:48:05.520Z,98.91
2022-09-03T20:50:48.604Z,92.36
2022-09-03T20:53:43.542Z,92.43
2022-09-03T20:56:24.657Z,93.51
2022-09-03T20:59:04.341Z,93.85
2022-09-03T21:01:41.898Z,100.00
2022-09-03T21:04:31.528Z,97.00
2022-09-03T21:07:12.774Z,95.41
2022-09-03T21:09:53.168Z,97.65
2022-09-03T21:12:35.367Z,100.00
2022-09-03T21:15:14.488Z,98.30
2022-09-03T21:17:57.601Z,93.31
2022-09-03T21:20:40.828Z,89.75
2022-09-03T21:23:21.066Z,90.89
2022-09-03T21:25:59.927Z,94.39
2022-09-03T21:28:38.604Z,97.91
2022-09-03T21:31:18.266Z,91.86
2022-09-03T21:33:54.196Z,87.48
2022-09-03T21:36:31.784Z,86.78
2022-09-03T21:39:10.464Z,92.04
2022-09-03T21:41:45.668Z,85.87
2022-09-03T21:44:20.280Z,90.56
2022-09-03T21:46:55.544Z,93.23
2022-09-03T21:49:31.314Z,89.65
2022-09-03T21:52:07.234Z,91.84
2022-09-03T21:54:37.523Z,88.70
2022-09-03T21:57:16.531Z,84.45
2022-09-03T22:00:17.700Z,87.06
2022-09-03T22:02:47.335Z,82.25
2022-09-03T22:05:17.563Z,89.17
2022-09-03T22:08:06.077Z,89.77
2022-09-03T22:10:44.237Z,83.54
2022-09-03T22:13:26.366Z,82.55
2022-09-03T22:16:03.217Z,78.41
2022-09-03T22:18:37.435Z,75.04
2022-09-03T22:21:15.321Z,72.35
2022-09-03T22:24:04.155Z,74.83
2022-09-03T22:26:45.627Z,74.22
2022-09-03T22:29:28.628Z,73.66
2022-09-03T22:32:03.210Z,75.14
2022-09-03T22:34:56.245Z,72.96
2022-09-03T22:37:41.579Z,71.27
2022-09-03T22:40:24.672Z,71.82
2022-09-03T22:43:26.260Z,74.97
2022-09-03T22:46:08.706Z,73.75
2022-09-03T22:49:01.408Z,80.95
2022-09-03T22:51:40.401Z,78.50
2022-09-03T22:54:28.566Z,79.25
2022-09-03T22:56:59.125Z,81.03
2022-09-03T22:59:34.254Z,79.05
2022-09-03T23:02:10.546Z,77.53
2022-09-03T23:04:48.767Z,74.42
2022-09-03T23:07:25.592Z,71.54
2022-09-03T23:10:03.062Z,69.92
2022-09-03T23:12:40.070Z,70.24
2022-09-03T23:15:14.154Z,69.61
2022-09-03T23:17:47.186Z,68.81
2022-09-03T23:20:21.380Z,69.72
2022-09-03T23:22:59.430Z,68.96
2022-09-03T23:25:36.052Z,70.71
2022-09-03T23:28:11.764Z,76.29
2022-09-03T23:30:41.772Z,72.76
2022-09-03T23:33:10.118Z,71.29
2022-09-03T23:35:50.007Z,74.72
2022-09-03T23:38:28.245Z,73.43
2022-09-03T23:41:00.764Z,72.19
2022-09-03T23:44:01.844Z,70.60
2022-09-03T23:46:39.589Z,70.00
2022-09-03T23:49:35.137Z,69.61
2022-09-03T23:52:30.961Z,69.31
2022-09-03T23:55:10.237Z,68.67
2022-09-03T23:57:42.308Z,70.78
